Saranac, MI

1:23 PM EST on November 27, 2014 (GMT -0500)
Capital City | Change Station
CLOSE
Current Station
Airport
Location: Lansing,
Elevation: 873 ft
Nearby Weather Stations

Elev 873 ft 42.78 °N, 84.58 °W | Updated 30 minutes ago

Overcast
Overcast
30 °F
Feels Like 22 °F
N
9
Wind Variable Wind from NNW

Today
High -- | Low -- °F
--% Chance of Precip.
Yesterday
High -- | Low -- °F
Precip. -- in
7:47 AM 5:09 PM
Waxing Crescent, 31% visible
Pressure 30.21 in
Visibility 10.0 miles
Clouds Mostly Cloudy 1900 ft
Overcast 2400 ft
Windchill 22 °F
Dew Point 23 °F
Humidity 75%
Rainfall 0.00 in
Snow Depth Not available.
UV 1 out of 12
Pollen .10 out of 12
Air Quality Not available.
Flu Activity Not available.
METAR KLAN 271753Z 33008KT 10SM BKN019 OVC024 M01/M05 A3017 RMK AO2 SLP229 60000 T10111050 11006 21022 50001

More Conditions Fewer Conditions

Pressure 30.21 in
Visibility 10.0 miles
Clouds Mostly Cloudy 1900 ft
Overcast 2400 ft
Windchill 22 °F
Dew Point 23 °F
Humidity 75%
Rainfall 0.00 in
Snow Depth Not available.
UV 1 out of 12
Pollen .10 out of 12
Air Quality Not available.
Flu Activity Not available.
METAR KLAN 271753Z 33008KT 10SM BKN019 OVC024 M01/M05 A3017 RMK AO2 SLP229 60000 T10111050 11006 21022 50001

More Conditions Fewer Conditions

10-Day Weather Forecast

Almanac

Astronomy

Nov. 27, 2014 Rise Set
Actual Time
Civil Twilight
Nautical Twilight
Astronomical Twilight
Moon
Length of Visible Light
Length of Day
Tomorrow will be .
, % of the Moon is Illuminated

Today's Extremes

State Highs State Lows

Community

WunderPhotos

Upload Photos

1,774,079 photos uploaded!

WunderBlogs® & News

Nearby

Air Quality

  Air Quality AQ Index Pollutant
Not available.

Snow Depth

Station Depth Elevation

Earthquake Activity

City Distance Mag. Time & Date
Minimum magnitude displayed is 2.5.

Coastal Water Temperatures

Place Temperature

Nearby Weather Stations